createdAt,value
2019-03-23T00:01:22.127Z,67.10
2019-03-23T00:03:52.208Z,67.30
2019-03-23T00:06:30.386Z,67.90
2019-03-23T00:08:53.837Z,68.20
2019-03-23T00:11:23.650Z,68.50
2019-03-23T00:13:53.772Z,68.70
2019-03-23T00:16:23.612Z,69.00
2019-03-23T00:18:53.680Z,69.10
2019-03-23T00:21:23.794Z,69.20
2019-03-23T00:23:53.685Z,69.50
2019-03-23T00:26:23.884Z,69.70
2019-03-23T00:28:53.947Z,70.90
2019-03-23T00:31:24.643Z,69.90
2019-03-23T00:33:54.463Z,70.20
2019-03-23T00:36:24.563Z,70.40
2019-03-23T00:38:54.432Z,70.70
2019-03-23T00:41:24.519Z,71.50
2019-03-23T00:43:54.314Z,71.90
2019-03-23T00:46:24.494Z,72.40
2019-03-23T00:48:54.298Z,72.60
2019-03-23T00:51:25.254Z,72.90
2019-03-23T00:53:55.133Z,73.20
2019-03-23T00:56:24.952Z,73.40
2019-03-23T00:58:54.843Z,73.70
2019-03-23T01:01:24.746Z,73.90
2019-03-23T01:03:54.571Z,74.30
2019-03-23T01:06:24.660Z,74.40
2019-03-23T01:08:54.770Z,74.50
2019-03-23T01:11:24.849Z,74.50
2019-03-23T01:13:54.922Z,74.50
2019-03-23T01:16:25.083Z,74.50
2019-03-23T01:18:54.934Z,75.30
2019-03-23T01:21:25.052Z,74.80
2019-03-23T01:23:55.080Z,75.10
2019-03-23T01:26:24.891Z,75.50
2019-03-23T01:28:54.686Z,75.80
2019-03-23T01:31:24.789Z,76.10
2019-03-23T01:33:54.971Z,76.50
2019-03-23T01:36:25.060Z,76.80
2019-03-23T01:38:55.176Z,76.90
2019-03-23T01:41:25.259Z,77.10
2019-03-23T01:43:55.377Z,77.30
2019-03-23T01:46:25.500Z,77.70
2019-03-23T01:48:56.131Z,78.20
2019-03-23T01:51:26.268Z,78.60
2019-03-23T01:53:56.372Z,79.00
2019-03-23T01:56:26.479Z,79.10
2019-03-23T01:58:56.375Z,79.30
2019-03-23T02:01:26.188Z,79.30
2019-03-23T02:03:56.024Z,79.40
2019-03-23T02:06:25.952Z,79.50
2019-03-23T02:08:56.475Z,79.40
2019-03-23T02:11:26.295Z,79.60
2019-03-23T02:13:56.570Z,79.70
2019-03-23T02:16:26.706Z,79.90
2019-03-23T02:18:56.503Z,79.80
2019-03-23T02:21:26.603Z,79.90
2019-03-23T02:23:56.508Z,80.00
2019-03-23T02:26:26.595Z,80.00
2019-03-23T02:28:56.679Z,80.20
2019-03-23T02:31:26.588Z,80.30
2019-03-23T02:33:56.392Z,80.50
2019-03-23T02:36:26.505Z,80.50
2019-03-23T02:38:56.779Z,81.50
2019-03-23T02:41:26.669Z,81.20
2019-03-23T02:43:56.617Z,82.20
2019-03-23T02:46:27.311Z,82.40
2019-03-23T02:48:57.455Z,84.80
2019-03-23T02:51:27.600Z,85.10
2019-03-23T02:53:57.419Z,85.30
2019-03-23T02:56:27.668Z,85.80
2019-03-23T02:58:57.777Z,87.00
2019-03-23T03:01:28.076Z,88.00
2019-03-23T03:03:57.888Z,89.70
2019-03-23T03:06:27.730Z,90.20
2019-03-23T03:08:57.625Z,90.60
2019-03-23T03:11:27.902Z,91.10
2019-03-23T03:13:57.778Z,91.70
2019-03-23T03:16:27.709Z,92.10
2019-03-23T03:18:57.514Z,92.50
2019-03-23T03:21:27.451Z,92.90
2019-03-23T03:23:57.595Z,93.00
2019-03-23T03:26:27.511Z,93.20
2019-03-23T03:28:57.376Z,93.50
2019-03-23T03:31:27.184Z,93.50
2019-03-23T03:33:57.557Z,93.60
2019-03-23T03:36:30.070Z,93.60
2019-03-23T03:38:59.026Z,93.70
2019-03-23T03:41:28.878Z,93.90
2019-03-23T03:43:58.799Z,93.90
2019-03-23T03:46:28.903Z,93.90
2019-03-23T03:49:11.823Z,94.00
2019-03-23T03:51:30.222Z,94.00
2019-03-23T03:54:00.075Z,94.10
2019-03-23T03:56:30.187Z,94.40
2019-03-23T03:59:00.080Z,94.50
2019-03-23T04:01:29.914Z,94.80
2019-03-23T04:04:00.085Z,95.00
2019-03-23T04:06:29.890Z,95.00
2019-03-23T04:09:00.146Z,95.00
2019-03-23T04:11:30.261Z,95.00
2019-03-23T04:14:01.241Z,95.00
2019-03-23T04:16:31.146Z,95.00
2019-03-23T04:19:00.977Z,94.90
2019-03-23T04:21:31.429Z,95.10
2019-03-23T04:24:01.385Z,95.20
2019-03-23T04:26:31.312Z,95.30
2019-03-23T04:29:01.156Z,95.30
2019-03-23T04:31:31.013Z,95.20
2019-03-23T04:34:00.936Z,95.10
2019-03-23T04:36:31.355Z,95.40
2019-03-23T04:39:01.217Z,95.40
2019-03-23T04:41:31.044Z,95.60
2019-03-23T04:44:00.970Z,95.50
2019-03-23T04:46:31.100Z,95.40
2019-03-23T04:49:01.164Z,95.30
2019-03-23T04:51:31.001Z,95.30
2019-03-23T04:54:00.903Z,95.30
2019-03-23T04:56:30.777Z,95.40
2019-03-23T04:59:00.917Z,95.60
2019-03-23T05:01:31.168Z,95.70
2019-03-23T05:04:01.251Z,95.80
2019-03-23T05:06:31.046Z,95.90
2019-03-23T05:09:00.900Z,95.70
2019-03-23T05:11:30.722Z,95.70
2019-03-23T05:14:00.811Z,95.70
2019-03-23T05:16:30.922Z,95.70
2019-03-23T05:19:00.745Z,95.70
2019-03-23T05:21:30.612Z,95.80
2019-03-23T05:24:00.459Z,95.70
2019-03-23T05:26:31.807Z,95.80
2019-03-23T05:29:01.688Z,95.80
2019-03-23T05:31:32.420Z,96.10
2019-03-23T05:34:02.252Z,96.00
2019-03-23T05:36:32.080Z,95.90
2019-03-23T05:39:01.983Z,95.90
2019-03-23T05:41:31.835Z,95.80
2019-03-23T05:44:01.693Z,95.70
2019-03-23T05:46:31.548Z,95.70
2019-03-23T05:49:01.603Z,95.60
2019-03-23T05:51:31.443Z,95.60
2019-03-23T05:54:01.298Z,95.50
2019-03-23T05:56:32.144Z,95.50
2019-03-23T05:59:02.043Z,95.40
2019-03-23T06:01:31.976Z,95.40
2019-03-23T06:04:01.823Z,95.30
2019-03-23T06:06:31.700Z,95.00
2019-03-23T06:09:01.713Z,95.00
2019-03-23T06:11:31.563Z,95.10
2019-03-23T06:14:01.412Z,95.30
2019-03-23T06:16:31.508Z,95.30
2019-03-23T06:19:01.649Z,95.20
2019-03-23T06:21:31.463Z,95.10
2019-03-23T06:24:01.557Z,95.00
2019-03-23T06:26:31.495Z,95.00
2019-03-23T06:29:01.509Z,94.90
2019-03-23T06:31:31.413Z,94.80
2019-03-23T06:34:01.260Z,94.70
2019-03-23T06:36:31.109Z,94.50
2019-03-23T06:39:05.382Z,94.40
2019-03-23T06:41:32.739Z,94.40
2019-03-23T06:44:02.689Z,94.30
2019-03-23T06:46:32.852Z,94.30
2019-03-23T06:49:02.758Z,94.20
2019-03-23T06:51:32.684Z,94.00
2019-03-23T06:54:02.483Z,93.90
2019-03-23T06:56:32.351Z,93.70
2019-03-23T06:59:02.163Z,93.70
2019-03-23T07:01:31.999Z,93.90
2019-03-23T07:04:01.904Z,93.50
2019-03-23T07:06:31.766Z,93.50
2019-03-23T07:09:01.975Z,93.40
2019-03-23T07:11:31.923Z,93.40
2019-03-23T07:14:02.001Z,93.30
2019-03-23T07:16:32.848Z,93.20
2019-03-23T07:19:02.707Z,93.10
2019-03-23T07:21:32.880Z,93.10
2019-03-23T07:24:03.204Z,93.00
2019-03-23T07:26:33.188Z,92.90
2019-03-23T07:29:03.006Z,92.30
2019-03-23T07:31:32.928Z,92.40
2019-03-23T07:34:02.788Z,92.40
2019-03-23T07:36:32.882Z,92.10
2019-03-23T07:39:02.980Z,91.90
2019-03-23T07:41:35.893Z,91.90
2019-03-23T07:44:05.815Z,91.90
2019-03-23T07:46:35.658Z,91.80
2019-03-23T07:49:05.715Z,91.60
2019-03-23T07:51:35.574Z,91.80
2019-03-23T07:54:05.672Z,91.80
2019-03-23T07:56:47.488Z,91.70
2019-03-23T07:59:20.523Z,91.70
2019-03-23T08:01:50.684Z,91.90
2019-03-23T08:04:20.547Z,92.00
2019-03-23T08:06:50.986Z,92.10
2019-03-23T08:09:37.296Z,91.70
2019-03-23T08:11:59.980Z,91.60
2019-03-23T08:14:30.062Z,91.50
2019-03-23T08:17:00.047Z,91.40
2019-03-23T08:19:29.877Z,91.40
2019-03-23T08:21:59.686Z,91.20
2019-03-23T08:24:30.460Z,91.20
2019-03-23T08:27:00.335Z,91.20
2019-03-23T08:29:30.159Z,91.30
2019-03-23T08:32:00.402Z,91.10
2019-03-23T08:34:30.190Z,90.60
2019-03-23T08:37:02.099Z,90.60
2019-03-23T08:39:31.835Z,90.40
2019-03-23T08:42:02.046Z,90.30
2019-03-23T08:44:31.860Z,90.10
2019-03-23T08:47:01.716Z,89.50
2019-03-23T08:49:31.564Z,89.20
2019-03-23T08:52:01.412Z,89.20
2019-03-23T08:54:34.075Z,88.70
2019-03-23T08:57:05.181Z,88.60
2019-03-23T08:59:35.173Z,88.10
2019-03-23T09:02:05.305Z,87.10
2019-03-23T09:04:35.148Z,87.10
2019-03-23T09:07:05.123Z,86.30
2019-03-23T09:09:35.291Z,86.10
2019-03-23T09:12:05.391Z,85.20
2019-03-23T09:14:35.268Z,84.20
2019-03-23T09:17:05.421Z,84.30
2019-03-23T09:19:35.517Z,83.00
2019-03-23T09:22:05.713Z,82.10
2019-03-23T09:24:35.611Z,81.90
2019-03-23T09:27:06.275Z,80.20
2019-03-23T09:29:36.510Z,80.00
2019-03-23T09:32:06.644Z,77.40
2019-03-23T09:34:36.783Z,76.70
2019-03-23T09:37:06.738Z,75.70
2019-03-23T09:39:36.975Z,74.70
2019-03-23T09:42:07.179Z,73.40
2019-03-23T09:44:41.619Z,73.70
2019-03-23T09:47:11.460Z,72.80
2019-03-23T09:49:43.211Z,72.60
2019-03-23T09:52:13.425Z,70.90
2019-03-23T09:54:44.032Z,71.90
2019-03-23T09:57:13.978Z,71.40
2019-03-23T09:59:44.516Z,71.20
2019-03-23T10:02:14.519Z,70.50
2019-03-23T10:04:44.532Z,71.40
2019-03-23T10:07:19.288Z,71.10
2019-03-23T10:09:49.513Z,71.00
2019-03-23T10:12:27.203Z,70.80
2019-03-23T10:15:15.375Z,70.10
2019-03-23T10:17:45.513Z,70.00
2019-03-23T10:20:15.679Z,69.50
2019-03-23T10:22:45.945Z,68.30
2019-03-23T10:25:15.833Z,68.40
2019-03-23T10:27:46.053Z,66.80
2019-03-23T10:30:16.209Z,65.90
2019-03-23T10:32:46.523Z,65.90
2019-03-23T10:35:16.489Z,66.10
2019-03-23T10:37:46.602Z,68.20
2019-03-23T10:40:16.614Z,68.50
2019-03-23T10:42:47.045Z,68.70
2019-03-23T10:45:17.166Z,68.50
2019-03-23T10:47:47.188Z,68.10
2019-03-23T10:50:17.105Z,67.80
2019-03-23T10:52:46.961Z,67.90
2019-03-23T10:55:16.882Z,67.70
2019-03-23T10:57:46.819Z,67.80
2019-03-23T11:00:16.895Z,68.60
2019-03-23T11:02:47.061Z,69.00
2019-03-23T11:05:17.188Z,69.00
2019-03-23T11:07:47.472Z,69.30
2019-03-23T11:10:19.431Z,69.10
2019-03-23T11:12:49.305Z,68.70
2019-03-23T11:15:19.415Z,68.70
2019-03-23T11:17:49.567Z,68.90
2019-03-23T11:20:19.427Z,69.20
2019-03-23T11:22:49.643Z,69.60
2019-03-23T11:25:19.557Z,69.10
2019-03-23T11:27:49.549Z,68.70
2019-03-23T11:30:19.382Z,68.00
2019-03-23T11:32:49.602Z,67.80
2019-03-23T11:35:20.016Z,67.80
2019-03-23T11:37:53.277Z,69.10
2019-03-23T11:40:23.936Z,67.80
2019-03-23T11:42:53.787Z,68.40
2019-03-23T11:45:23.710Z,69.90
2019-03-23T11:47:53.619Z,70.50
2019-03-23T11:50:23.465Z,70.90
2019-03-23T11:52:53.579Z,71.30
2019-03-23T11:55:23.424Z,71.40
2019-03-23T11:57:53.255Z,71.60
2019-03-23T12:00:23.294Z,71.60
2019-03-23T12:02:53.440Z,71.80
2019-03-23T12:05:23.307Z,71.10
2019-03-23T12:07:53.251Z,71.30
2019-03-23T12:10:23.099Z,72.30
2019-03-23T12:12:52.938Z,71.10
2019-03-23T12:15:22.755Z,72.20
2019-03-23T12:17:52.582Z,71.40
2019-03-23T12:20:22.791Z,71.10
2019-03-23T12:22:52.931Z,70.70
2019-03-23T12:25:41.630Z,70.40
2019-03-23T12:28:11.458Z,70.50
2019-03-23T12:30:41.565Z,69.60
2019-03-23T12:33:11.407Z,69.60
2019-03-23T12:35:46.225Z,68.00
2019-03-23T12:38:18.662Z,66.60
2019-03-23T12:40:51.118Z,65.40
2019-03-23T12:43:21.144Z,64.40
2019-03-23T12:45:51.048Z,63.60
2019-03-23T12:48:21.392Z,62.00
2019-03-23T12:50:52.501Z,62.10
2019-03-23T12:53:22.395Z,61.60
2019-03-23T12:55:53.452Z,61.10
2019-03-23T12:58:23.284Z,61.00
2019-03-23T13:00:58.904Z,59.70
2019-03-23T13:03:31.587Z,59.90
2019-03-23T13:06:05.929Z,60.20
2019-03-23T13:08:36.092Z,60.60
2019-03-23T13:11:07.547Z,59.60
2019-03-23T13:13:40.315Z,59.90
2019-03-23T13:16:12.324Z,59.70
2019-03-23T13:18:42.428Z,60.10
2019-03-23T13:21:12.629Z,59.80
2019-03-23T13:23:42.957Z,60.50
2019-03-23T13:26:12.868Z,60.20
2019-03-23T13:28:50.251Z,60.40
2019-03-23T13:31:20.621Z,60.50
2019-03-23T13:33:57.469Z,59.50
2019-03-23T13:36:27.660Z,59.00
2019-03-23T13:38:57.771Z,58.10
2019-03-23T13:41:27.604Z,59.00
2019-03-23T13:43:57.476Z,59.00
2019-03-23T13:46:27.599Z,59.40
2019-03-23T13:48:57.411Z,59.50
2019-03-23T13:51:27.295Z,59.90
2019-03-23T13:53:57.122Z,60.50
2019-03-23T13:56:27.330Z,61.00
2019-03-23T13:58:57.243Z,60.70
2019-03-23T14:01:27.150Z,60.30
2019-03-23T14:03:57.336Z,59.80
2019-03-23T14:06:27.479Z,59.20
2019-03-23T14:08:57.355Z,59.00
2019-03-23T14:11:27.191Z,58.60
2019-03-23T14:13:57.352Z,58.30
2019-03-23T14:16:27.174Z,57.40
2019-03-23T14:18:57.479Z,58.50
2019-03-23T14:21:27.319Z,58.30
2019-03-23T14:23:57.420Z,57.90
2019-03-23T14:26:27.305Z,57.80
2019-03-23T14:28:57.724Z,57.80
2019-03-23T14:31:27.675Z,57.30
2019-03-23T14:33:57.938Z,56.70
2019-03-23T14:36:28.071Z,56.10
2019-03-23T14:38:57.919Z,56.30
2019-03-23T14:41:27.765Z,55.90
2019-03-23T14:43:57.844Z,56.40
2019-03-23T14:46:27.643Z,56.00
2019-03-23T14:49:01.674Z,55.90
2019-03-23T14:51:29.623Z,56.10
2019-03-23T14:53:59.431Z,56.40
2019-03-23T14:56:31.470Z,56.30
2019-03-23T14:59:01.110Z,56.40
2019-03-23T15:01:30.979Z,56.10
2019-03-23T15:04:00.850Z,56.00
2019-03-23T15:06:33.851Z,56.40
2019-03-23T15:09:04.942Z,57.10
2019-03-23T15:11:36.124Z,57.30
2019-03-23T15:14:06.161Z,57.50
2019-03-23T15:16:36.040Z,58.30
2019-03-23T15:19:08.835Z,58.20
2019-03-23T15:21:38.779Z,58.50
2019-03-23T15:24:08.877Z,58.50
2019-03-23T15:26:39.012Z,58.10
2019-03-23T15:29:08.947Z,57.70
2019-03-23T15:31:38.805Z,57.90
2019-03-23T15:34:09.016Z,57.80
2019-03-23T15:36:39.391Z,57.80
2019-03-23T15:39:09.331Z,58.00
2019-03-23T15:41:39.167Z,58.10
2019-03-23T15:44:09.007Z,58.60
2019-03-23T15:46:39.138Z,59.20
2019-03-23T15:49:09.027Z,59.70
2019-03-23T15:51:38.852Z,60.40
2019-03-23T15:54:08.731Z,61.30
2019-03-23T15:56:38.612Z,62.70
2019-03-23T15:59:08.511Z,63.40
2019-03-23T16:01:38.638Z,63.80
2019-03-23T16:04:09.428Z,64.20
2019-03-23T16:06:39.352Z,64.60
2019-03-23T16:09:09.505Z,65.10
2019-03-23T16:11:39.612Z,65.70
2019-03-23T16:14:09.701Z,66.10
2019-03-23T16:16:40.355Z,66.20
2019-03-23T16:19:10.176Z,66.20
2019-03-23T16:21:40.156Z,66.00
2019-03-23T16:24:10.024Z,66.10
2019-03-23T16:26:40.240Z,66.10
2019-03-23T16:29:10.314Z,66.50
2019-03-23T16:31:40.328Z,66.60
2019-03-23T16:34:10.824Z,66.90
2019-03-23T16:36:40.640Z,67.30
2019-03-23T16:39:10.763Z,67.90
2019-03-23T16:41:40.839Z,68.50
2019-03-23T16:44:11.631Z,69.00
2019-03-23T16:46:41.796Z,69.30
2019-03-23T16:49:11.646Z,68.70
2019-03-23T16:51:41.651Z,69.80
2019-03-23T16:54:11.548Z,70.00
2019-03-23T16:56:41.624Z,70.20
2019-03-23T16:59:11.562Z,70.50
2019-03-23T17:01:41.804Z,71.00
2019-03-23T17:04:11.630Z,71.60
2019-03-23T17:06:46.298Z,72.00
2019-03-23T17:09:13.444Z,72.30
2019-03-23T17:11:43.303Z,72.50
2019-03-23T17:14:13.144Z,73.00
2019-03-23T17:16:43.624Z,73.40
2019-03-23T17:19:13.528Z,73.80
2019-03-23T17:21:43.650Z,74.20
2019-03-23T17:24:13.585Z,74.60
2019-03-23T17:26:43.524Z,75.00
2019-03-23T17:29:14.727Z,75.10
2019-03-23T17:31:44.586Z,75.30
2019-03-23T17:34:14.516Z,75.50
2019-03-23T17:36:44.614Z,76.00
2019-03-23T17:39:14.579Z,76.90
2019-03-23T17:41:44.783Z,76.30
2019-03-23T17:44:15.007Z,76.60
2019-03-23T17:46:45.077Z,76.70
2019-03-23T17:49:15.047Z,76.80
2019-03-23T17:51:45.226Z,76.70
2019-03-23T17:54:15.131Z,76.90
2019-03-23T17:56:44.971Z,77.00
2019-03-23T17:59:15.089Z,77.30
2019-03-23T18:01:44.999Z,77.50
2019-03-23T18:04:16.070Z,77.40
2019-03-23T18:06:46.186Z,77.30
2019-03-23T18:09:16.060Z,77.50
2019-03-23T18:11:46.218Z,77.80
2019-03-23T18:14:16.559Z,77.70
2019-03-23T18:16:46.441Z,77.90
2019-03-23T18:19:16.254Z,77.60
2019-03-23T18:21:46.714Z,77.50
2019-03-23T18:24:16.927Z,77.70
2019-03-23T18:26:47.652Z,77.50
2019-03-23T18:29:17.560Z,77.60
2019-03-23T18:31:47.434Z,77.50
2019-03-23T18:34:17.641Z,77.60
2019-03-23T18:36:47.611Z,77.70
2019-03-23T18:39:17.470Z,77.70
2019-03-23T18:41:47.620Z,77.70
2019-03-23T18:44:17.507Z,77.70
2019-03-23T18:46:47.860Z,77.70
2019-03-23T18:49:17.820Z,77.90
2019-03-23T18:51:48.036Z,78.00
2019-03-23T18:54:17.929Z,78.00
2019-03-23T18:56:48.175Z,78.10
2019-03-23T18:59:18.150Z,78.00
2019-03-23T19:01:48.022Z,78.00
2019-03-23T19:04:18.129Z,78.20
2019-03-23T19:06:47.971Z,78.20
2019-03-23T19:09:18.079Z,78.30
2019-03-23T19:11:48.961Z,78.30
2019-03-23T19:14:18.819Z,78.50
2019-03-23T19:16:48.649Z,78.50
2019-03-23T19:19:18.666Z,78.70
2019-03-23T19:21:48.824Z,78.80
2019-03-23T19:24:21.833Z,78.80
2019-03-23T19:26:52.003Z,78.70
2019-03-23T19:29:22.157Z,78.80
2019-03-23T19:31:52.720Z,78.90
2019-03-23T19:34:22.950Z,78.90
2019-03-23T19:36:55.740Z,79.20
2019-03-23T19:39:29.686Z,79.20
2019-03-23T19:42:00.768Z,79.30
2019-03-23T19:44:30.907Z,79.50
2019-03-23T19:47:09.671Z,79.40
2019-03-23T19:49:42.241Z,79.40
2019-03-23T19:52:12.966Z,79.50
2019-03-23T19:54:53.938Z,79.50
2019-03-23T19:57:25.431Z,79.60
2019-03-23T20:00:00.869Z,79.70
2019-03-23T20:02:41.527Z,79.80
2019-03-23T20:05:15.689Z,79.90
2019-03-23T20:07:46.772Z,80.20
2019-03-23T20:10:18.095Z,80.40
2019-03-23T20:12:52.740Z,80.80
2019-03-23T20:15:30.140Z,80.80
2019-03-23T20:18:01.109Z,81.00
2019-03-23T20:20:33.910Z,80.90
2019-03-23T20:23:10.295Z,80.80
2019-03-23T20:26:17.600Z,81.00
2019-03-23T20:29:09.139Z,81.10
2019-03-23T20:31:40.921Z,80.90
2019-03-23T20:34:16.394Z,81.00
2019-03-23T20:36:57.033Z,81.00
2019-03-23T20:39:31.901Z,81.00
2019-03-23T20:42:13.354Z,81.30
2019-03-23T20:44:43.722Z,81.40
2019-03-23T20:47:16.768Z,81.20
2019-03-23T20:49:47.290Z,81.40
2019-03-23T20:52:18.540Z,81.50
2019-03-23T20:54:49.368Z,81.60
2019-03-23T20:57:24.250Z,81.70
2019-03-23T20:59:57.134Z,81.80
2019-03-23T21:02:31.735Z,82.00
2019-03-23T21:05:02.476Z,82.10
2019-03-23T21:07:40.605Z,82.10
2019-03-23T21:13:05.864Z,82.20
2019-03-23T21:15:39.229Z,82.20
2019-03-23T21:18:09.280Z,82.30
2019-03-23T21:20:39.286Z,82.30
2019-03-23T21:23:09.151Z,82.30
2019-03-23T21:25:40.256Z,82.30
2019-03-23T21:28:10.540Z,82.30
2019-03-23T21:30:40.810Z,82.40
2019-03-23T21:33:10.807Z,82.50
2019-03-23T21:35:40.687Z,82.70
2019-03-23T21:38:10.840Z,82.70
2019-03-23T21:40:41.045Z,82.70
2019-03-23T21:43:11.147Z,82.70
2019-03-23T21:45:42.551Z,82.60
2019-03-23T21:48:12.524Z,82.60
2019-03-23T21:50:47.438Z,82.60
2019-03-23T21:53:15.448Z,82.70
2019-03-23T21:55:45.337Z,82.90
2019-03-23T21:58:15.554Z,83.00
2019-03-23T22:00:45.482Z,83.00
2019-03-23T22:03:15.664Z,83.00
2019-03-23T22:05:45.800Z,83.10
2019-03-23T22:08:15.704Z,83.40
2019-03-23T22:10:45.882Z,83.50
2019-03-23T22:13:15.808Z,83.60
2019-03-23T22:15:46.611Z,83.80
2019-03-23T22:18:17.024Z,83.80
2019-03-23T22:20:48.913Z,84.00
2019-03-23T22:23:18.875Z,84.00
2019-03-23T22:25:50.104Z,84.00
2019-03-23T22:28:25.609Z,84.00
2019-03-23T22:30:58.848Z,84.30
2019-03-23T22:33:29.782Z,84.40
2019-03-23T22:36:00.100Z,84.30
2019-03-23T22:38:31.422Z,84.80
2019-03-23T22:41:05.993Z,84.70
2019-03-23T22:44:19.173Z,85.10
2019-03-23T22:47:19.446Z,85.20
2019-03-23T22:50:00.339Z,85.40
2019-03-23T22:52:46.666Z,85.80
2019-03-23T22:55:35.786Z,86.20
2019-03-23T22:58:11.890Z,86.40
2019-03-23T23:00:59.697Z,86.40
2019-03-23T23:03:30.598Z,86.50
2019-03-23T23:06:21.364Z,86.40
2019-03-23T23:08:52.543Z,86.60
2019-03-23T23:11:26.584Z,86.70
2019-03-23T23:13:56.652Z,86.90
2019-03-23T23:16:27.441Z,86.70
2019-03-23T23:21:40.951Z,86.60
2019-03-23T23:24:35.027Z,86.80
2019-03-23T23:27:13.577Z,87.70
2019-03-23T23:32:26.444Z,86.90
2019-03-23T23:34:58.013Z,87.00
2019-03-23T23:37:28.548Z,86.90
2019-03-23T23:39:59.520Z,86.90
2019-03-23T23:42:29.902Z,87.00
2019-03-23T23:45:00.554Z,87.20
2019-03-23T23:47:31.134Z,86.90
2019-03-23T23:50:02.835Z,86.80
2019-03-23T23:52:43.700Z,86.70
2019-03-23T23:55:24.601Z,86.80
2019-03-23T23:57:56.845Z,86.80
